createdAt,value
2022-09-28T00:00:47.837Z,8.20
2022-09-28T00:03:14.515Z,8.20
2022-09-28T00:05:41.198Z,8.30
2022-09-28T00:08:07.909Z,8.40
2022-09-28T00:10:34.607Z,8.30
2022-09-28T00:13:01.778Z,8.20
2022-09-28T00:15:29.200Z,8.30
2022-09-28T00:17:56.075Z,8.30
2022-09-28T00:20:22.794Z,8.20
2022-09-28T00:22:49.628Z,8.20
2022-09-28T00:25:16.958Z,8.30
2022-09-28T00:27:49.179Z,8.30
2022-09-28T00:30:16.395Z,8.20
2022-09-28T00:32:43.919Z,8.20
2022-09-28T00:35:10.977Z,8.30
2022-09-28T00:37:37.662Z,8.30
2022-09-28T00:40:04.803Z,8.30
2022-09-28T00:42:31.539Z,8.20
2022-09-28T00:44:59.075Z,8.20
2022-09-28T00:47:50.835Z,8.30
2022-09-28T00:50:24.345Z,8.30
2022-09-28T00:52:57.909Z,8.30
2022-09-28T00:55:46.153Z,8.60
2022-09-28T00:58:16.569Z,8.40
2022-09-28T01:00:43.413Z,8.40
2022-09-28T01:03:10.955Z,8.30
2022-09-28T01:05:40.308Z,8.20
2022-09-28T01:08:08.637Z,8.30
2022-09-28T01:10:35.362Z,8.30
2022-09-28T01:13:02.367Z,8.20
2022-09-28T01:15:30.459Z,8.30
2022-09-28T01:18:07.614Z,8.20
2022-09-28T01:21:01.369Z,8.20
2022-09-28T01:23:31.123Z,8.20
2022-09-28T01:26:27.886Z,8.20
2022-09-28T01:29:18.832Z,8.20
2022-09-28T01:31:59.041Z,8.20
2022-09-28T01:34:35.611Z,8.20
2022-09-28T01:37:06.653Z,8.30
2022-09-28T01:39:37.759Z,8.20
2022-09-28T01:42:15.420Z,8.20
2022-09-28T01:44:46.521Z,8.20
2022-09-28T01:47:17.828Z,8.20
2022-09-28T01:49:49.265Z,8.10
2022-09-28T01:52:18.971Z,8.20
2022-09-28T01:54:53.529Z,8.10
2022-09-28T01:57:26.308Z,8.10
2022-09-28T02:00:06.982Z,8.20
2022-09-28T02:03:16.291Z,8.10
2022-09-28T02:05:53.882Z,8.20
2022-09-28T02:08:29.346Z,8.10
2022-09-28T02:11:08.070Z,8.10
2022-09-28T02:13:40.674Z,8.20
2022-09-28T02:16:31.383Z,8.20
2022-09-28T02:18:58.543Z,8.20
2022-09-28T02:21:41.564Z,8.20
2022-09-28T02:24:20.666Z,8.30
2022-09-28T02:26:50.704Z,8.30
2022-09-28T02:29:17.692Z,8.20
2022-09-28T02:31:44.505Z,8.20
2022-09-28T02:34:11.362Z,8.20
2022-09-28T02:36:38.228Z,8.20
2022-09-28T02:39:05.151Z,8.20
2022-09-28T02:42:09.509Z,8.30
2022-09-28T02:45:04.917Z,8.20
2022-09-28T02:48:10.581Z,8.20
2022-09-28T02:50:52.701Z,8.10
2022-09-28T02:53:50.954Z,8.10
2022-09-28T02:56:32.779Z,8.00
2022-09-28T02:59:15.010Z,8.00
2022-09-28T03:02:10.822Z,7.90
2022-09-28T03:04:47.904Z,7.90
2022-09-28T03:07:36.826Z,7.90
2022-09-28T03:10:19.456Z,7.90
2022-09-28T03:12:48.999Z,7.90
2022-09-28T03:15:25.971Z,7.90
2022-09-28T03:17:54.296Z,7.90
2022-09-28T03:20:21.220Z,7.80
2022-09-28T03:23:05.984Z,7.90
2022-09-28T03:25:34.718Z,7.70
2022-09-28T03:28:01.899Z,7.60
2022-09-28T03:30:30.661Z,7.60
2022-09-28T03:32:59.468Z,7.50
2022-09-28T03:35:28.552Z,7.50
2022-09-28T03:37:57.960Z,7.60
2022-09-28T03:40:27.306Z,7.50
2022-09-28T03:42:54.075Z,7.50
2022-09-28T03:45:20.887Z,7.60
2022-09-28T03:47:49.914Z,7.60
2022-09-28T03:50:18.510Z,7.40
2022-09-28T03:52:45.205Z,7.50
2022-09-28T03:55:11.947Z,7.50
2022-09-28T03:57:38.844Z,7.60
2022-09-28T04:00:06.289Z,7.70
2022-09-28T04:02:40.442Z,7.80
2022-09-28T04:05:07.684Z,7.80
2022-09-28T04:07:34.501Z,7.80
2022-09-28T04:10:01.224Z,7.60
2022-09-28T04:12:28.024Z,7.80
2022-09-28T04:14:54.731Z,7.80
2022-09-28T04:17:21.439Z,8.00
2022-09-28T04:19:48.495Z,7.90
2022-09-28T04:22:25.350Z,7.90
2022-09-28T04:24:52.254Z,7.80
2022-09-28T04:27:37.506Z,7.80
2022-09-28T04:30:04.921Z,7.80
2022-09-28T04:32:33.609Z,7.70
2022-09-28T04:35:00.412Z,7.70
2022-09-28T04:37:27.120Z,7.80
2022-09-28T04:39:53.835Z,7.80
2022-09-28T04:42:20.551Z,7.70
2022-09-28T04:44:49.344Z,7.70
2022-09-28T04:47:16.708Z,7.80
2022-09-28T04:49:59.352Z,7.70
2022-09-28T04:52:30.968Z,7.70
2022-09-28T04:54:57.693Z,7.60
2022-09-28T04:57:25.553Z,7.70
2022-09-28T04:59:52.241Z,7.70
2022-09-28T05:02:19.002Z,7.60
2022-09-28T05:05:23.854Z,7.90
2022-09-28T05:08:07.254Z,7.70
2022-09-28T05:10:34.797Z,7.70
2022-09-28T05:13:02.520Z,7.90
2022-09-28T05:15:29.179Z,7.80
2022-09-28T05:17:56.058Z,7.90
2022-09-28T05:20:30.257Z,7.70
2022-09-28T05:22:57.065Z,7.80
2022-09-28T05:25:23.856Z,7.80
2022-09-28T05:28:05.126Z,7.80
2022-09-28T05:30:52.127Z,7.70
2022-09-28T05:33:41.917Z,7.80
2022-09-28T05:36:13.400Z,7.70
2022-09-28T05:38:42.001Z,7.70
2022-09-28T05:41:09.150Z,7.70
2022-09-28T05:43:36.546Z,8.00
2022-09-28T05:46:08.199Z,7.90
2022-09-28T05:48:37.889Z,8.00
2022-09-28T05:51:04.705Z,7.90
2022-09-28T05:53:31.465Z,8.00
2022-09-28T05:55:59.496Z,7.80
2022-09-28T05:58:27.388Z,7.80
2022-09-28T06:00:58.252Z,7.80
2022-09-28T06:03:25.214Z,7.90
2022-09-28T06:05:51.996Z,7.90
2022-09-28T06:08:18.723Z,7.90
2022-09-28T06:10:50.757Z,8.00
2022-09-28T06:13:17.513Z,7.90
2022-09-28T06:15:46.281Z,8.10
2022-09-28T06:18:14.909Z,8.00
2022-09-28T06:21:00.029Z,7.90
2022-09-28T06:23:43.636Z,7.90
2022-09-28T06:26:13.686Z,7.70
2022-09-28T06:28:40.513Z,7.80
2022-09-28T06:31:07.355Z,8.00
2022-09-28T06:33:42.067Z,8.00
2022-09-28T06:36:10.166Z,8.00
2022-09-28T06:38:38.289Z,8.00
2022-09-28T06:41:30.983Z,8.10
2022-09-28T06:44:01.947Z,8.00
2022-09-28T06:46:47.222Z,7.90
2022-09-28T06:49:19.452Z,8.20
2022-09-28T06:52:25.579Z,8.10
2022-09-28T06:55:11.272Z,8.10
2022-09-28T06:57:46.164Z,8.10
2022-09-28T07:00:13.904Z,8.10
2022-09-28T07:02:43.384Z,8.20
2022-09-28T07:05:29.524Z,8.20
2022-09-28T07:08:20.734Z,8.20
2022-09-28T07:11:21.144Z,8.30
2022-09-28T07:14:00.220Z,8.30
2022-09-28T07:16:33.576Z,8.30
2022-09-28T07:19:08.021Z,8.20
2022-09-28T07:21:34.845Z,8.30
2022-09-28T07:24:05.560Z,8.20
2022-09-28T07:27:07.460Z,8.30
2022-09-28T07:29:39.620Z,8.30
2022-09-28T07:32:27.849Z,8.40
2022-09-28T07:35:15.526Z,8.50
2022-09-28T07:37:47.979Z,8.60
2022-09-28T07:40:33.337Z,8.50
2022-09-28T07:43:06.890Z,8.60
2022-09-28T07:45:38.521Z,8.60
2022-09-28T07:48:05.731Z,8.70
2022-09-28T07:50:57.423Z,8.70
2022-09-28T07:53:54.208Z,8.90
2022-09-28T07:56:38.472Z,9.00
2022-09-28T07:59:25.734Z,8.90
2022-09-28T08:02:01.315Z,8.80
2022-09-28T08:04:30.057Z,8.90
2022-09-28T08:06:56.769Z,9.00
2022-09-28T08:09:23.523Z,8.90
2022-09-28T08:12:09.723Z,8.90
2022-09-28T08:14:55.826Z,8.90
2022-09-28T08:17:46.865Z,9.00
2022-09-28T08:20:32.939Z,9.00
2022-09-28T08:23:04.330Z,9.10
2022-09-28T08:25:31.771Z,9.10
2022-09-28T08:28:02.266Z,9.20
2022-09-28T08:30:32.050Z,9.20
2022-09-28T08:33:13.252Z,9.10
2022-09-28T08:36:01.611Z,9.20
2022-09-28T08:38:51.266Z,9.30
2022-09-28T08:41:52.703Z,9.30
2022-09-28T08:44:57.800Z,9.30
2022-09-28T08:48:25.718Z,9.30
2022-09-28T08:51:38.863Z,9.50
2022-09-28T08:54:56.186Z,9.50
2022-09-28T08:57:45.374Z,9.60
2022-09-28T09:00:23.183Z,9.50
2022-09-28T09:02:50.116Z,9.50
2022-09-28T09:05:23.409Z,9.50
2022-09-28T09:08:26.166Z,9.70
2022-09-28T09:11:03.738Z,9.70
2022-09-28T09:13:40.870Z,9.60
2022-09-28T09:17:00.630Z,9.80
2022-09-28T09:19:54.770Z,9.80
2022-09-28T09:22:38.589Z,9.90
2022-09-28T09:25:21.382Z,9.90
2022-09-28T09:28:28.265Z,9.90
2022-09-28T09:31:22.652Z,9.50
2022-09-28T09:34:00.676Z,8.90
2022-09-28T09:37:04.271Z,8.90
2022-09-28T09:40:08.548Z,9.10
2022-09-28T09:43:32.802Z,9.10
2022-09-28T09:46:34.386Z,9.00
2022-09-28T09:49:43.914Z,8.80
2022-09-28T09:52:21.770Z,9.10
2022-09-28T09:55:15.375Z,9.40
2022-09-28T09:58:04.381Z,9.50
2022-09-28T10:00:45.277Z,9.40
2022-09-28T10:03:25.203Z,9.40
2022-09-28T10:06:06.940Z,9.50
2022-09-28T10:08:39.687Z,9.60
2022-09-28T10:11:13.820Z,9.60
2022-09-28T10:13:46.718Z,9.60
2022-09-28T10:16:34.899Z,9.40
2022-09-28T10:19:05.189Z,9.50
2022-09-28T10:22:05.936Z,9.30
2022-09-28T10:24:36.876Z,9.20
2022-09-28T10:27:07.788Z,9.50
2022-09-28T10:29:44.302Z,9.50
2022-09-28T10:32:23.767Z,9.40
2022-09-28T10:35:10.839Z,9.20
2022-09-28T10:38:04.912Z,9.30
2022-09-28T10:40:59.223Z,9.30
2022-09-28T10:44:06.017Z,9.50
2022-09-28T10:46:39.245Z,9.60
2022-09-28T10:49:17.631Z,9.70
2022-09-28T10:51:54.569Z,9.70
2022-09-28T10:54:29.972Z,9.70
2022-09-28T10:56:59.709Z,10.00
2022-09-28T10:59:51.774Z,10.10
2022-09-28T11:02:35.401Z,10.30
2022-09-28T11:05:27.850Z,10.00
2022-09-28T11:08:00.054Z,10.00
2022-09-28T11:10:34.093Z,10.10
2022-09-28T11:13:11.311Z,10.10
2022-09-28T11:15:44.074Z,10.20
2022-09-28T11:18:32.369Z,10.60
2022-09-28T11:21:14.815Z,10.70
2022-09-28T11:24:07.323Z,10.70
2022-09-28T11:26:41.803Z,10.50
2022-09-28T11:29:37.055Z,10.30
2022-09-28T11:32:39.846Z,10.20
2022-09-28T11:35:37.893Z,10.10
2022-09-28T11:38:15.424Z,10.20
2022-09-28T11:40:57.385Z,10.30
2022-09-28T11:43:46.188Z,10.20
2022-09-28T11:46:32.692Z,10.10
2022-09-28T11:49:26.459Z,10.20
2022-09-28T11:51:57.074Z,10.70
2022-09-28T11:54:31.393Z,10.60
2022-09-28T11:57:02.231Z,10.80
2022-09-28T11:59:37.241Z,10.80
2022-09-28T12:02:19.437Z,10.80
2022-09-28T12:04:59.171Z,10.80
2022-09-28T12:07:30.149Z,10.50
2022-09-28T12:10:13.244Z,10.70
2022-09-28T12:12:58.939Z,10.80
2022-09-28T12:16:15.055Z,10.90
2022-09-28T12:18:56.352Z,10.90
2022-09-28T12:21:38.326Z,11.00
2022-09-28T12:24:20.392Z,11.30
2022-09-28T12:27:17.404Z,11.40
2022-09-28T12:29:51.424Z,11.20
2022-09-28T12:32:42.999Z,11.40
2022-09-28T12:35:34.077Z,11.30
2022-09-28T12:38:31.673Z,11.10
2022-09-28T12:41:16.606Z,11.20
2022-09-28T12:44:07.644Z,10.70
2022-09-28T12:46:45.982Z,10.90
2022-09-28T12:52:28.122Z,10.50
2022-09-28T12:55:13.848Z,10.50
2022-09-28T12:57:55.782Z,10.60
2022-09-28T13:00:25.198Z,10.50
2022-09-28T13:03:10.047Z,10.50
2022-09-28T13:06:16.810Z,10.70
2022-09-28T13:09:05.235Z,11.10
2022-09-28T13:12:03.786Z,10.90
2022-09-28T13:14:55.361Z,10.80
2022-09-28T13:17:37.736Z,10.60
2022-09-28T13:20:24.149Z,10.60
2022-09-28T13:22:56.698Z,10.30
2022-09-28T13:25:27.200Z,10.30
2022-09-28T13:27:59.433Z,10.20
2022-09-28T13:30:26.722Z,10.10
2022-09-28T13:32:57.084Z,10.00
2022-09-28T13:35:24.123Z,9.90
2022-09-28T13:38:22.856Z,9.70
2022-09-28T13:41:04.813Z,9.70
2022-09-28T13:43:41.265Z,10.00
2022-09-28T13:46:20.267Z,10.00
2022-09-28T13:49:17.607Z,10.00
2022-09-28T13:51:56.703Z,10.10
2022-09-28T13:54:44.674Z,10.10
2022-09-28T13:57:31.429Z,10.20
2022-09-28T14:00:24.431Z,10.20
2022-09-28T14:03:04.241Z,9.90
2022-09-28T14:06:08.273Z,9.80
2022-09-28T14:08:44.745Z,9.70
2022-09-28T14:11:26.732Z,9.90
2022-09-28T14:14:05.373Z,9.70
2022-09-28T14:16:34.168Z,9.80
2022-09-28T14:19:08.429Z,9.90
2022-09-28T14:21:59.866Z,10.00
2022-09-28T14:24:45.146Z,9.90
2022-09-28T14:27:45.800Z,10.00
2022-09-28T14:30:12.449Z,10.00
2022-09-28T14:32:41.994Z,9.90
2022-09-28T14:35:33.992Z,9.80
2022-09-28T14:38:24.666Z,9.70
2022-09-28T14:41:13.805Z,9.70
2022-09-28T14:43:46.710Z,9.60
2022-09-28T14:46:19.673Z,9.80
2022-09-28T14:49:03.401Z,9.70
2022-09-28T14:51:30.182Z,9.50
2022-09-28T14:54:02.572Z,9.60
2022-09-28T14:56:33.223Z,9.60
2022-09-28T14:59:00.636Z,9.70
2022-09-28T15:01:28.115Z,9.60
2022-09-28T15:03:57.258Z,9.60
2022-09-28T15:06:25.005Z,9.80
2022-09-28T15:08:51.870Z,9.80
2022-09-28T15:11:23.488Z,9.70
2022-09-28T15:13:55.487Z,9.60
2022-09-28T15:16:24.048Z,9.70
2022-09-28T15:19:18.874Z,9.80
2022-09-28T15:21:47.726Z,9.60
2022-09-28T15:24:25.744Z,9.50
2022-09-28T15:26:53.194Z,9.40
2022-09-28T15:29:22.714Z,9.30
2022-09-28T15:31:54.154Z,9.30
2022-09-28T15:34:50.628Z,9.30
2022-09-28T15:37:26.636Z,9.30
2022-09-28T15:39:54.989Z,9.30
2022-09-28T15:42:22.505Z,9.30
2022-09-28T15:45:24.790Z,9.30
2022-09-28T15:47:58.323Z,9.30
2022-09-28T15:50:29.886Z,9.30
2022-09-28T15:53:03.060Z,9.20
2022-09-28T15:55:34.461Z,9.30
2022-09-28T15:58:22.615Z,9.20
2022-09-28T16:00:54.565Z,9.20
2022-09-28T16:03:29.592Z,9.00
2022-09-28T16:05:59.534Z,8.90
2022-09-28T16:08:45.746Z,8.90
2022-09-28T16:11:18.772Z,8.90
2022-09-28T16:13:48.117Z,9.00
2022-09-28T16:16:16.731Z,9.10
2022-09-28T16:18:49.286Z,9.00
2022-09-28T16:21:43.874Z,9.00
2022-09-28T16:24:21.259Z,8.80
2022-09-28T16:26:54.311Z,8.90
2022-09-28T16:29:33.107Z,8.80
2022-09-28T16:32:25.748Z,8.90
2022-09-28T16:35:23.481Z,8.90
2022-09-28T16:37:56.761Z,8.80
2022-09-28T16:40:23.768Z,8.70
2022-09-28T16:42:53.974Z,8.70
2022-09-28T16:45:23.180Z,8.70
2022-09-28T16:47:53.490Z,8.60
2022-09-28T16:50:21.291Z,8.60
2022-09-28T16:53:29.727Z,8.50
2022-09-28T16:55:57.687Z,8.60
2022-09-28T16:58:25.212Z,8.60
2022-09-28T17:00:54.653Z,8.60
2022-09-28T17:03:23.559Z,8.40
2022-09-28T17:05:51.592Z,8.50
2022-09-28T17:08:22.181Z,8.50
2022-09-28T17:11:13.984Z,8.40
2022-09-28T17:13:40.872Z,8.50
2022-09-28T17:16:17.703Z,8.50
2022-09-28T17:18:45.957Z,8.40
2022-09-28T17:21:18.463Z,8.40
2022-09-28T17:23:46.503Z,8.50
2022-09-28T17:26:33.569Z,8.40
2022-09-28T17:29:01.859Z,8.60
2022-09-28T17:31:29.912Z,8.60
2022-09-28T17:33:56.843Z,8.40
2022-09-28T17:36:24.218Z,8.20
2022-09-28T17:38:52.329Z,8.20
2022-09-28T17:41:21.107Z,8.30
2022-09-28T17:43:48.864Z,8.30
2022-09-28T17:46:33.542Z,8.30
2022-09-28T17:49:02.528Z,8.30
2022-09-28T17:51:32.723Z,8.40
2022-09-28T17:54:03.836Z,8.30
2022-09-28T17:56:32.702Z,8.40
2022-09-28T17:59:03.033Z,8.30
2022-09-28T18:01:34.187Z,8.30
2022-09-28T18:04:03.566Z,8.30
2022-09-28T18:06:32.339Z,8.30
2022-09-28T18:08:59.585Z,8.30
2022-09-28T18:11:26.498Z,8.40
2022-09-28T18:13:53.279Z,8.40
2022-09-28T18:16:22.562Z,8.50
2022-09-28T18:18:53.530Z,8.30
2022-09-28T18:21:20.367Z,8.20
2022-09-28T18:23:47.093Z,8.20
2022-09-28T18:26:15.600Z,8.10
2022-09-28T18:28:46.065Z,8.00
2022-09-28T18:31:19.023Z,8.20
2022-09-28T18:33:45.852Z,8.20
2022-09-28T18:36:12.837Z,8.10
2022-09-28T18:38:39.904Z,8.10
2022-09-28T18:41:10.070Z,8.10
2022-09-28T18:43:37.319Z,8.10
2022-09-28T18:46:11.287Z,8.10
2022-09-28T18:48:40.269Z,8.30
2022-09-28T18:51:11.918Z,8.20
2022-09-28T18:53:39.757Z,8.10
2022-09-28T18:56:11.672Z,8.00
2022-09-28T18:58:40.012Z,8.20
2022-09-28T19:01:28.867Z,8.00
2022-09-28T19:03:55.949Z,8.10
2022-09-28T19:06:22.664Z,8.10
2022-09-28T19:08:53.801Z,8.00
2022-09-28T19:11:20.634Z,7.90
2022-09-28T19:13:47.499Z,7.90
2022-09-28T19:16:20.814Z,7.90
2022-09-28T19:18:48.398Z,7.80
2022-09-28T19:21:16.172Z,7.80
2022-09-28T19:23:48.902Z,7.90
2022-09-28T19:26:20.352Z,7.70
2022-09-28T19:28:47.825Z,7.90
2022-09-28T19:31:14.999Z,8.00
2022-09-28T19:33:42.525Z,7.80
2022-09-28T19:36:12.189Z,7.90
2022-09-28T19:38:40.187Z,7.90
2022-09-28T19:41:39.174Z,8.00
2022-09-28T19:44:24.610Z,7.80
2022-09-28T19:46:55.973Z,7.80
2022-09-28T19:49:24.059Z,7.80
2022-09-28T19:52:11.962Z,8.00
2022-09-28T19:54:39.900Z,7.80
2022-09-28T19:57:08.311Z,7.90
2022-09-28T19:59:36.705Z,7.80
2022-09-28T20:02:04.755Z,7.90
2022-09-28T20:04:31.515Z,7.70
2022-09-28T20:06:58.283Z,7.90
2022-09-28T20:09:25.053Z,7.80
2022-09-28T20:11:53.008Z,7.70
2022-09-28T20:14:21.469Z,7.70
2022-09-28T20:16:50.311Z,7.70
2022-09-28T20:19:19.357Z,7.80
2022-09-28T20:21:48.097Z,7.80
2022-09-28T20:24:16.953Z,7.60
2022-09-28T20:26:44.623Z,7.70
2022-09-28T20:29:11.677Z,7.80
2022-09-28T20:31:38.820Z,7.80
2022-09-28T20:34:06.739Z,7.80
2022-09-28T20:36:34.400Z,7.80
2022-09-28T20:39:02.191Z,7.90
2022-09-28T20:41:35.590Z,7.90
2022-09-28T20:44:06.292Z,7.90
2022-09-28T20:46:36.796Z,7.70
2022-09-28T20:49:05.043Z,7.70
2022-09-28T20:51:32.160Z,7.80
2022-09-28T20:53:59.248Z,7.70
2022-09-28T20:56:28.330Z,7.70
2022-09-28T20:58:56.822Z,7.70
2022-09-28T21:01:25.992Z,7.60
2022-09-28T21:03:57.723Z,7.50
2022-09-28T21:06:28.096Z,7.50
2022-09-28T21:08:55.343Z,7.60
2022-09-28T21:11:24.213Z,7.50
2022-09-28T21:13:59.211Z,7.60
2022-09-28T21:16:27.863Z,7.50
2022-09-28T21:18:54.922Z,7.50
2022-09-28T21:21:23.117Z,7.50
2022-09-28T21:23:54.149Z,7.40
2022-09-28T21:26:26.181Z,7.50
2022-09-28T21:28:54.340Z,7.50
2022-09-28T21:31:28.247Z,7.50
2022-09-28T21:33:55.783Z,7.40
2022-09-28T21:36:22.600Z,7.50
2022-09-28T21:38:49.373Z,7.50
2022-09-28T21:41:16.290Z,7.50
2022-09-28T21:43:43.008Z,7.40
2022-09-28T21:46:10.368Z,7.50
2022-09-28T21:48:37.139Z,7.40
2022-09-28T21:51:05.941Z,7.40
2022-09-28T21:53:34.995Z,7.40
2022-09-28T21:56:03.038Z,7.40
2022-09-28T21:58:33.485Z,7.40
2022-09-28T22:01:08.116Z,7.40
2022-09-28T22:03:36.391Z,7.30
2022-09-28T22:06:06.480Z,7.50
2022-09-28T22:08:34.259Z,7.40
2022-09-28T22:11:09.840Z,7.50
2022-09-28T22:13:40.697Z,7.50
2022-09-28T22:16:08.437Z,7.40
2022-09-28T22:18:35.565Z,7.40
2022-09-28T22:21:11.741Z,7.40
2022-09-28T22:23:39.400Z,7.50
2022-09-28T22:26:19.042Z,7.50
2022-09-28T22:28:51.059Z,7.50
2022-09-28T22:31:20.684Z,7.60
2022-09-28T22:33:47.833Z,7.70
2022-09-28T22:36:19.146Z,7.50
2022-09-28T22:38:46.984Z,7.50
2022-09-28T22:41:20.724Z,7.40
2022-09-28T22:43:49.217Z,7.50
2022-09-28T22:46:19.679Z,7.40
2022-09-28T22:48:48.636Z,7.50
2022-09-28T22:51:15.802Z,7.40
2022-09-28T22:53:43.072Z,7.50
2022-09-28T22:56:12.596Z,7.50
2022-09-28T22:58:43.396Z,7.50
2022-09-28T23:01:10.994Z,7.50
2022-09-28T23:03:40.387Z,7.30
2022-09-28T23:06:07.799Z,7.30
2022-09-28T23:08:34.968Z,7.30
2022-09-28T23:11:02.868Z,7.30
2022-09-28T23:13:30.988Z,7.30
2022-09-28T23:15:59.625Z,7.30
2022-09-28T23:18:29.306Z,7.30
2022-09-28T23:20:58.114Z,7.30
2022-09-28T23:23:25.124Z,7.20
2022-09-28T23:25:52.696Z,7.20
2022-09-28T23:28:21.048Z,7.30
2022-09-28T23:30:48.402Z,7.20
2022-09-28T23:33:16.634Z,7.40
2022-09-28T23:35:43.980Z,7.30
2022-09-28T23:38:13.600Z,7.40
2022-09-28T23:40:41.095Z,7.40
2022-09-28T23:43:08.137Z,7.40
2022-09-28T23:45:34.851Z,7.40
2022-09-28T23:48:01.854Z,7.40
2022-09-28T23:50:28.654Z,7.40
2022-09-28T23:52:55.365Z,7.40
2022-09-28T23:55:22.713Z,7.40
2022-09-28T23:57:49.474Z,7.40
